Aviation Digital Data Service (ADDS)

Output produced by METARs form (1313 UTC 24 May 2022)
found at http://www.aviationweather.gov/metar/data/
 
VTCC 241300Z 14003KT 9999 SCT035 26/24 Q1008 NOSIG
VTCC 241230Z 12004KT 9999 FEW022 SCT035 26/24 Q1007 NOSIG
VTCC 241200Z 11005KT 9999 FEW022 SCT035 26/24 Q1007 NOSIG
VTCC 241130Z 12003KT 090V150 9999 FEW025 BKN032 27/24 Q1007 NOSIG
VTCC 241100Z 13004KT 9999 FEW022 BKN032 26/24 Q1007 NOSIG
VTCC 241030Z 14006KT 9999 FEW022 BKN032 26/24 Q1006 NOSIG
VTCC 241000Z 15006KT 9999 BKN032 26/24 Q1006 NOSIG
VTCC 240930Z 15008KT 9999 BKN032 26/24 Q1006 NOSIG
VTCC 240900Z 17009KT 140V210 9999 BKN032 26/23 Q1006 NOSIG
VTCC 240830Z 20014KT 9999 FEW025CB BKN032 27/23 Q1006 NOSIG
VTCC 240800Z 20016G28KT 9999 FEW025CB BKN032 26/22 Q1006 TEMPO TL0810 4000 TSRA
VTCC 240730Z 29005KT 7000 -RA FEW025CB BKN032 27/24 Q1005 RERA TEMPO FM0755 TL0825 20015G25KT 4000 TSRA
VTCC 240700Z 18007KT 150V210 9999 VCSH FEW025CB BKN032 32/22 Q1005 TEMPO 4000 TSRA
VTCC 240630Z 15005KT 110V240 9999 BKN035 32/22 Q1006 NOSIG
VTCC 240600Z 16004KT 060V200 9999 BKN035 32/22 Q1006 NOSIG
VTCC 240530Z 12004KT 080V170 9999 BKN035 31/22 Q1007 NOSIG
VTCC 240500Z 20005KT 160V250 9999 BKN035 31/22 Q1007 NOSIG
VTCC 240430Z VRB04KT 9999 SCT035 31/22 Q1007 NOSIG
VTCC 240400Z 20006KT 130V250 9999 SCT035 30/23 Q1008 NOSIG
VTCC 240330Z VRB03KT 9999 SCT035 31/22 Q1008 NOSIG
VTCC 240300Z 23005KT 150V270 9999 SCT035 29/22 Q1008 NOSIG
VTCC 240230Z 20005KT 120V260 9999 SCT035 29/22 Q1008 NOSIG
VTCC 240200Z 20006KT 150V270 9999 SCT035 29/22 Q1008 NOSIG
VTCC 240130Z VRB02KT 9999 SCT035 29/23 Q1008 NOSIG
VTCC 240100Z VRB02KT 9999 SCT035 28/22 Q1007 NOSIG
VTCC 240030Z 22003KT 160V240 9999 BKN035 27/22 Q1007 NOSIG
VTCC 240000Z VRB02KT 9999 BKN035 25/23 Q1006 NOSIG
VTCC 232330Z 25002KT 9999 BKN035 24/22 Q1006 NOSIG
VTCC 232300Z VRB02KT 9999 SCT035 24/22 Q1006 NOSIG
VTCC 232230Z VRB02KT 9999 FEW035 24/22 Q1005 NOSIG
VTCC 232200Z 00000KT 9999 FEW035 24/22 Q1005 NOSIG
VTCC 232130Z VRB02KT 9999 FEW035 24/22 Q1005 NOSIG
VTCC 232100Z 29002KT 9999 FEW035 24/22 Q1005 NOSIG
VTCC 232030Z VRB02KT 9999 FEW035 24/22 Q1005 NOSIG
VTCC 232000Z 29003KT 9999 FEW035 25/22 Q1005 NOSIG
VTCC 231930Z 01002KT 9999 FEW035 25/22 Q1005 NOSIG
VTCC 231900Z VRB01KT 9999 FEW035 25/23 Q1005 NOSIG
VTCC 231830Z VRB02KT 9999 FEW035 26/23 Q1005 NOSIG
VTCC 231800Z 21003KT 9999 FEW035 26/23 Q1005 NOSIG
VTCC 231730Z 20006KT 9999 FEW035 26/23 Q1006 NOSIG
VTCC 231700Z 24004KT 9999 FEW035 26/22 Q1006 NOSIG
VTCC 231630Z 27004KT 9999 FEW035 26/22 Q1006 NOSIG
VTCC 231600Z 25003KT 9999 FEW035 26/22 Q1005 NOSIG
VTCC 231530Z 25004KT 9999 FEW035 27/23 Q1005 NOSIG
VTCC 231500Z 24004KT 9999 SCT035 27/22 Q1005 NOSIG
VTCC 231430Z 23003KT 9999 SCT035 27/23 Q1005 NOSIG
VTCC 231400Z 26004KT 9999 SCT035 27/23 Q1005 NOSIG
VTCC 231330Z VRB01KT 9999 BKN035 28/23 Q1004 NOSIG
VTCC 231300Z 00000KT 9999 BKN035 28/22 Q1004 NOSIG
VTCC 231230Z 26002KT 9999 BKN035 28/23 Q1003 NOSIG
TAF VTCC 241100Z 2412/2518 26005KT 9999 SCT035 
     BECMG 2417/2419 32005KT 
     BECMG 2422/2424 20005KT 
     TEMPO 2506/2510 27015G25KT -TSRA FEW025CB BKN035 
     BECMG 2509/2511 26005KT